Aviation Digital Data Service (ADDS)

Output produced by TAFs form (0049 UTC 21 November 2017)
found at http://www.aviationweather.gov/adds/tafs/
 
METAR text: EGLL 210020Z AUTO 25013KT 9999 BKN010 OVC033 13/11 Q1013 TEMPO BKN008
Conditions at: EGLL (LONDON/HEATHROW , GB) observed 0020 UTC 21 November 2017
Temperature: 13.0°C (55°F)
Dewpoint: 11.0°C (52°F) [RH = 88%]
Pressure (altimeter): 29.91 inches Hg (1013.0 mb)
Winds: from the WSW (250 degrees) at 15 MPH (13 knots; 6.8 m/s)
Visibility: 6 or more miles (10+ km)
Ceiling: 1000 feet AGL
Clouds: broken clouds at 1000 feet AGL
overcast cloud deck at 3300 feet AGL
Weather: no significant weather observed at this time

Forecast for: EGLL (LONDON/HEATHROW , GB)
Text: TAF EGLL 202252Z 2100/2206 24010KT 9999 SCT006 BKN010
Forecast period: 0000 to 0600 UTC 21 November 2017
Forecast type: FROM: standard forecast or significant change
Winds: from the WSW (240 degrees) at 12 MPH (10 knots; 5.2 m/s)
Visibility: 6 or more miles (10+ km)
Ceiling: 1000 feet AGL
Clouds: scattered clouds at 600 feet AGL
broken clouds at 1000 feet AGL
Weather: no significant weather forecast for this period
Text: TEMPO 2100/2106 7000 -RA BKN006
Forecast period: 0000 to 0600 UTC 21 November 2017
Forecast type: TEMPORARY: The following changes expected for less than half the time period
Visibility: 4 miles (7 km)
Ceiling: 600 feet AGL
Clouds: broken clouds at 600 feet AGL
Weather: -RA  (light rain)
Text: PROB30
Forecast period: 0000 to 0500 UTC 21 November 2017
Forecast type: TEMPORARY: The following changes expected for less than half the time period
Visibility: 1.86 miles (2.99 km)
Ceiling: 400 feet AGL
Clouds: broken clouds at 400 feet AGL
Weather: -RA -DZ  (light rain, light drizzle)
Text: TEMPO 2100/2105 3000 -RADZ BKN004
Forecast period: 0600 to 1800 UTC 21 November 2017
Forecast type: BECOMING: Conditions expected to become as follows by 0900 UTC 21 November 2017
Winds: from the WSW (240 degrees) at 12 MPH (10 knots; 5.2 m/s)
Visibility: 6 or more miles (10+ km)
Ceiling: 2000 feet AGL
Clouds: broken clouds at 2000 feet AGL
Weather: no significant weather forecast for this period
Text: BECMG 2106/2109 BKN020
Forecast period: 1800 UTC 21 November 2017 to 0600 UTC 22 November 2017
Forecast type: BECOMING: Conditions expected to become as follows by 2100 UTC 21 November 2017
Winds: from the SW (220 degrees) at 18 MPH (16 knots; 8.3 m/s)
gusting to 30 MPH (26 knots; 13.5 m/s)
Visibility: 6 or more miles (10+ km)
Ceiling: 2000 feet AGL
Clouds: broken clouds at 2000 feet AGL
Weather: no significant weather forecast for this period
Text: BECMG 2118/2121 22016G26KT
Forecast period: 2100 UTC 21 November 2017 to 0300 UTC 22 November 2017
Forecast type: TEMPORARY: The following changes expected for less than half the time period
Visibility: 5 miles (8 km)
Ceiling: 1200 feet AGL
Clouds: broken clouds at 1200 feet AGL
Weather: -RA  (light rain)

METAR text: ZBAA 210030Z 08001MPS 6000 NSC M02/M05 Q1022 NOSIG
Conditions at: ZBAA (BEIJING/PEKING , CN) observed 0030 UTC 21 November 2017
Temperature: -2.0°C (28°F)
Dewpoint: -5.0°C (23°F) [RH = 80%]
Pressure (altimeter): 30.18 inches Hg (1022.0 mb)
Winds: from the E (80 degrees) at 2 MPH (2 knots; 1.0 m/s)
Visibility: 4 miles (6 km)
Ceiling: at least 12,000 feet AGL
Clouds: sky clear below 12,000 feet AGL
Weather: no significant weather observed at this time

Forecast for: ZBAA (BEIJING/PEKING , CN)
Text: TAF ZBAA 202130Z 2100/2124 34004MPS CAVOK TX09/2107Z TNM05/21Z
Forecast period: 0000 to 0700 UTC 21 November 2017
Forecast type: FROM: standard forecast or significant change
Winds: from the NNW (340 degrees) at 9 MPH (8 knots; 4.2 m/s)
Visibility: 6 or more miles (10+ km)
Clouds: not forecast
Temperature: minimum -5.0°C (23°F) expected at 2100 UTC
Weather: no significant weather forecast for this period
Text: BECMG 2107/2108 34009G15MPS
Forecast period: 0700 to 1500 UTC 21 November 2017
Forecast type: BECOMING: Conditions expected to become as follows by 0800 UTC 21 November 2017
Winds: from the NNW (340 degrees) at 20 MPH (17 knots; 8.8 m/s)
gusting to 33 MPH (29 knots; 15.1 m/s)
Visibility: 6 or more miles (10+ km)
Weather: no significant weather forecast for this period
Text: BECMG 2115/2116 34004MPS
Forecast period: 1500 UTC 21 November 2017 to 0000 UTC 22 November 2017
Forecast type: BECOMING: Conditions expected to become as follows by 1600 UTC 21 November 2017
Winds: from the NNW (340 degrees) at 9 MPH (8 knots; 4.2 m/s)
Visibility: 6 or more miles (10+ km)
Weather: no significant weather forecast for this period

METAR text: ZUUU 210000Z 35001MPS 9999 SCT050 10/07 Q1025 NOSIG
Conditions at: ZUUU (CHENGDU , CN) observed 0000 UTC 21 November 2017
Temperature: 10.0°C (50°F)
Dewpoint: 7.0°C (45°F) [RH = 82%]
Pressure (altimeter): 30.27 inches Hg (1025.0 mb)
Winds: from the N (350 degrees) at 2 MPH (2 knots; 1.0 m/s)
Visibility: 6 or more miles (10+ km)
Ceiling: at least 12,000 feet AGL
Clouds: scattered clouds at 5000 feet AGL
Weather: no significant weather observed at this time

Forecast for: ZUUU (CHENGDU , CN)
Text: TAF ZUUU 202006Z 2100/2124 02003MPS 6000 SCT050 TX13/2106Z TN07/2123Z
Forecast period: 0000 UTC 21 November 2017 to 0000 UTC 22 November 2017
Forecast type: FROM: standard forecast or significant change
Winds: from the NNE (20 degrees) at 7 MPH (6 knots; 3.1 m/s)
Visibility: 4 miles (6 km)
Clouds: scattered clouds at 5000 feet AGL
Weather: no significant weather forecast for this period
Text: TEMPO 2104/2110 -RA
Forecast period: 0400 to 1000 UTC 21 November 2017
Forecast type: TEMPORARY: The following changes expected for less than half the time period
Weather: -RA  (light rain)

METAR text: ZLXY 210000Z 24002MPS 210V280 5000 BR NSC 02/M00 Q1027 NOSIG
Conditions at: ZLXY (XIANYANG , CN) observed 0000 UTC 21 November 2017
Temperature: 2.0°C (36°F)
Dewpoint: 0.0°C (32°F) [RH = 87%]
Pressure (altimeter): 30.32 inches Hg (1027.0 mb)
Winds: from the WSW (240 degrees) at 5 MPH (4 knots; 2.1 m/s)
Visibility: 3 miles (5 km)
Ceiling: at least 12,000 feet AGL
Clouds: sky clear below 12,000 feet AGL
Weather: BR  (mist)

Forecast for: ZLXY (XIANYANG , CN)
Text: TAF ZLXY 201904Z 2100/2124 24003MPS 3000 HZ NSC TX11/2107Z TN02/2123Z
Forecast period: 0000 UTC 21 November 2017 to 0000 UTC 22 November 2017
Forecast type: FROM: standard forecast or significant change
Winds: from the WSW (240 degrees) at 7 MPH (6 knots; 3.1 m/s)
Visibility: 1.86 miles (2.99 km)
Clouds: not forecast
Weather: HZ  (haze)

METAR text: ZSPD 210030Z 36004MPS 8000 FEW040 12/08 Q1027 NOSIG
Conditions at: ZSPD (SHANGHAI/PUDONG , CN) observed 0030 UTC 21 November 2017
Temperature: 12.0°C (54°F)
Dewpoint: 8.0°C (46°F) [RH = 76%]
Pressure (altimeter): 30.32 inches Hg (1027.0 mb)
Winds: from the N (360 degrees) at 9 MPH (8 knots; 4.2 m/s)
Visibility: 5 miles (8 km)
Ceiling: at least 12,000 feet AGL
Clouds: few clouds at 4000 feet AGL
Weather: no significant weather observed at this time

Forecast for: ZSPD (SHANGHAI/PUDONG , CN)
Text: TAF ZSPD 202112Z 2100/2124 03004MPS 6000 BKN020 TX14/2106Z TN08/2121Z
Forecast period: 0000 UTC 21 November 2017 to 0000 UTC 22 November 2017
Forecast type: FROM: standard forecast or significant change
Winds: from the NNE (30 degrees) at 9 MPH (8 knots; 4.2 m/s)
Visibility: 4 miles (6 km)
Ceiling: 2000 feet AGL
Clouds: broken clouds at 2000 feet AGL
Weather: no significant weather forecast for this period

METAR text: ZSSS 210030Z 36003MPS 7000 -RA OVC040 09/07 Q1027 NOSIG
Conditions at: ZSSS (SHANGHAI/HONGQIA, CN) observed 0030 UTC 21 November 2017
Temperature: 9.0°C (48°F)
Dewpoint: 7.0°C (45°F) [RH = 87%]
Pressure (altimeter): 30.32 inches Hg (1027.0 mb)
Winds: from the N (360 degrees) at 7 MPH (6 knots; 3.1 m/s)
Visibility: 4 miles (7 km)
Ceiling: 4000 feet AGL
Clouds: overcast cloud deck at 4000 feet AGL
Weather: -RA  (light rain)

Forecast for: ZSSS (SHANGHAI/HONGQIA, CN)
Text: TAF ZSSS 201912Z 2100/2124 03004MPS 6000 BKN020 TX14/2106Z TN09/2121Z
Forecast period: 0000 UTC 21 November 2017 to 0000 UTC 22 November 2017
Forecast type: FROM: standard forecast or significant change
Winds: from the NNE (30 degrees) at 9 MPH (8 knots; 4.2 m/s)
Visibility: 4 miles (6 km)
Ceiling: 2000 feet AGL
Clouds: broken clouds at 2000 feet AGL
Weather: no significant weather forecast for this period

METAR text: VHHH 210030Z 05008KT 9999 FEW020 SCT024 17/11 Q1020 NOSIG
Conditions at: VHHH (HONG KONG INTL , HK) observed 0030 UTC 21 November 2017
Temperature: 17.0°C (63°F)
Dewpoint: 11.0°C (52°F) [RH = 68%]
Pressure (altimeter): 30.12 inches Hg (1020.0 mb)
Winds: from the NE (50 degrees) at 9 MPH (8 knots; 4.2 m/s)
Visibility: 6 or more miles (10+ km)
Ceiling: at least 12,000 feet AGL
Clouds: few clouds at 2000 feet AGL
scattered clouds at 2400 feet AGL
Weather: no significant weather observed at this time

Forecast for: VHHH (HONG KONG INTL , HK)
Text: TAF VHHH 202300Z 2100/2206 03010KT 9000 FEW015 SCT025 TX20/2106Z TX21/2206Z TN17/2122Z
Forecast period: 0000 UTC 21 November 2017 to 0600 UTC 22 November 2017
Forecast type: FROM: standard forecast or significant change
Winds: from the NNE (30 degrees) at 12 MPH (10 knots; 5.2 m/s)
Visibility: 6 miles (9 km)
Clouds: few clouds at 1500 feet AGL
scattered clouds at 2500 feet AGL
Weather: no significant weather forecast for this period